Denbigh, Canada
Current Conditions -  °F | °C
As of 11:00 PM on Wednesday 28 Jan 2015 (Local Time) from CYWA Reporting Station
Clear Clear  
Wind Chill: -8°   Ceiling: Unl
Heat Index: -8°   Visibility: 9mi
Dew Point: -15°   Wind: 2mph
Humidity: 71%   Direction: 260°W
Pressure: 30.25"   Gusts: NA
Location:  45.15°N, 77.25°W
Report Text: CYWA 290400Z AUTO 26002KT 9SM CLR M22/M26 A3025 RMK SLP259
Loading
Personal Weather Stations






























Interactive Weather Map New forecast layout! Learn more

10-Day Weather Forecast

Advertisements
Track Severe Weather on mobile